sensor_id;sensor_type;location;lat;lon;timestamp;temperature;humidity
35559;DHT22;21661;50.794;-1.066;2022-11-30T00:00:12;7.00;99.90
35559;DHT22;21661;50.794;-1.066;2022-11-30T00:02:38;7.10;99.90
35559;DHT22;21661;50.794;-1.066;2022-11-30T00:05:03;7.10;99.90
35559;DHT22;21661;50.794;-1.066;2022-11-30T00:07:29;7.10;99.90
35559;DHT22;21661;50.794;-1.066;2022-11-30T00:09:54;7.10;99.90
35559;DHT22;21661;50.794;-1.066;2022-11-30T00:12:20;7.10;99.90
35559;DHT22;21661;50.794;-1.066;2022-11-30T00:14:45;7.10;99.90
35559;DHT22;21661;50.794;-1.066;2022-11-30T00:17:11;7.00;99.90
35559;DHT22;21661;50.794;-1.066;2022-11-30T00:19:37;7.10;99.90
35559;DHT22;21661;50.794;-1.066;2022-11-30T00:22:02;7.10;99.90
35559;DHT22;21661;50.794;-1.066;2022-11-30T00:24:28;7.10;99.90
35559;DHT22;21661;50.794;-1.066;2022-11-30T00:26:53;7.20;99.90
35559;DHT22;21661;50.794;-1.066;2022-11-30T00:29:18;7.10;99.90
35559;DHT22;21661;50.794;-1.066;2022-11-30T00:31:44;7.10;99.90
35559;DHT22;21661;50.794;-1.066;2022-11-30T00:34:10;7.10;99.90
35559;DHT22;21661;50.794;-1.066;2022-11-30T00:36:36;7.10;99.90
35559;DHT22;21661;50.794;-1.066;2022-11-30T00:39:01;7.00;99.90
35559;DHT22;21661;50.794;-1.066;2022-11-30T00:41:27;7.00;99.90
35559;DHT22;21661;50.794;-1.066;2022-11-30T00:43:52;6.90;99.90
35559;DHT22;21661;50.794;-1.066;2022-11-30T00:46:18;6.80;99.90
35559;DHT22;21661;50.794;-1.066;2022-11-30T00:48:43;6.80;99.90
35559;DHT22;21661;50.794;-1.066;2022-11-30T00:51:09;6.70;99.90
35559;DHT22;21661;50.794;-1.066;2022-11-30T00:53:36;6.70;99.90
35559;DHT22;21661;50.794;-1.066;2022-11-30T00:56:02;6.60;99.90
35559;DHT22;21661;50.794;-1.066;2022-11-30T00:58:27;6.60;99.90
35559;DHT22;21661;50.794;-1.066;2022-11-30T01:00:52;6.60;99.90
35559;DHT22;21661;50.794;-1.066;2022-11-30T01:03:18;6.60;99.90
35559;DHT22;21661;50.794;-1.066;2022-11-30T01:05:43;6.60;99.90
35559;DHT22;21661;50.794;-1.066;2022-11-30T01:08:09;6.60;99.90
35559;DHT22;21661;50.794;-1.066;2022-11-30T01:10:36;6.60;99.90
35559;DHT22;21661;50.794;-1.066;2022-11-30T01:13:02;6.60;99.90
35559;DHT22;21661;50.794;-1.066;2022-11-30T01:15:28;6.60;99.90
35559;DHT22;21661;50.794;-1.066;2022-11-30T01:17:54;6.40;99.90
35559;DHT22;21661;50.794;-1.066;2022-11-30T01:20:20;6.40;99.90
35559;DHT22;21661;50.794;-1.066;2022-11-30T01:22:45;6.30;99.90
35559;DHT22;21661;50.794;-1.066;2022-11-30T01:25:11;6.30;99.90
35559;DHT22;21661;50.794;-1.066;2022-11-30T01:27:36;6.30;99.90
35559;DHT22;21661;50.794;-1.066;2022-11-30T01:30:02;6.20;99.90
35559;DHT22;21661;50.794;-1.066;2022-11-30T01:32:27;6.20;99.90
35559;DHT22;21661;50.794;-1.066;2022-11-30T01:34:53;6.20;99.90
35559;DHT22;21661;50.794;-1.066;2022-11-30T01:37:18;6.20;99.90
35559;DHT22;21661;50.794;-1.066;2022-11-30T01:39:44;6.20;99.90
35559;DHT22;21661;50.794;-1.066;2022-11-30T01:42:13;6.20;99.90
35559;DHT22;21661;50.794;-1.066;2022-11-30T01:44:49;6.20;99.90
35559;DHT22;21661;50.794;-1.066;2022-11-30T01:47:16;6.30;99.90
35559;DHT22;21661;50.794;-1.066;2022-11-30T01:49:46;6.30;99.90
35559;DHT22;21661;50.794;-1.066;2022-11-30T01:52:19;6.30;99.90
35559;DHT22;21661;50.794;-1.066;2022-11-30T01:54:47;6.30;99.90
35559;DHT22;21661;50.794;-1.066;2022-11-30T01:57:15;6.30;99.90
35559;DHT22;21661;50.794;-1.066;2022-11-30T01:59:44;6.30;99.90
35559;DHT22;21661;50.794;-1.066;2022-11-30T02:02:09;6.20;99.90
35559;DHT22;21661;50.794;-1.066;2022-11-30T02:04:35;6.20;99.90
35559;DHT22;21661;50.794;-1.066;2022-11-30T02:07:02;6.20;99.90
35559;DHT22;21661;50.794;-1.066;2022-11-30T02:09:28;6.20;99.90
35559;DHT22;21661;50.794;-1.066;2022-11-30T02:11:55;6.20;99.90
35559;DHT22;21661;50.794;-1.066;2022-11-30T02:14:44;6.20;99.90
35559;DHT22;21661;50.794;-1.066;2022-11-30T02:17:13;6.20;99.90
35559;DHT22;21661;50.794;-1.066;2022-11-30T02:27:09;6.20;99.90
35559;DHT22;21661;50.794;-1.066;2022-11-30T02:30:23;6.20;99.90
35559;DHT22;21661;50.794;-1.066;2022-11-30T02:35:25;6.30;99.90
35559;DHT22;21661;50.794;-1.066;2022-11-30T02:37:52;6.30;99.90
35559;DHT22;21661;50.794;-1.066;2022-11-30T02:40:18;6.30;99.90
35559;DHT22;21661;50.794;-1.066;2022-11-30T02:42:44;6.40;99.90
35559;DHT22;21661;50.794;-1.066;2022-11-30T02:45:10;6.40;99.90
35559;DHT22;21661;50.794;-1.066;2022-11-30T02:47:39;6.30;99.90
35559;DHT22;21661;50.794;-1.066;2022-11-30T02:50:16;6.30;99.90
35559;DHT22;21661;50.794;-1.066;2022-11-30T02:52:42;6.30;99.90
35559;DHT22;21661;50.794;-1.066;2022-11-30T02:55:09;6.30;99.90
35559;DHT22;21661;50.794;-1.066;2022-11-30T02:57:35;6.30;99.90
35559;DHT22;21661;50.794;-1.066;2022-11-30T03:00:02;6.20;99.90
35559;DHT22;21661;50.794;-1.066;2022-11-30T03:02:28;6.20;99.90
35559;DHT22;21661;50.794;-1.066;2022-11-30T03:04:53;6.10;99.90
35559;DHT22;21661;50.794;-1.066;2022-11-30T03:07:19;6.10;99.90
35559;DHT22;21661;50.794;-1.066;2022-11-30T03:09:44;6.10;99.90
35559;DHT22;21661;50.794;-1.066;2022-11-30T03:12:10;6.10;99.90
35559;DHT22;21661;50.794;-1.066;2022-11-30T03:14:35;6.10;99.90
35559;DHT22;21661;50.794;-1.066;2022-11-30T03:17:01;6.10;99.90
35559;DHT22;21661;50.794;-1.066;2022-11-30T03:19:26;6.10;99.90
35559;DHT22;21661;50.794;-1.066;2022-11-30T03:21:52;6.20;99.90
35559;DHT22;21661;50.794;-1.066;2022-11-30T03:24:17;6.20;99.90
35559;DHT22;21661;50.794;-1.066;2022-11-30T03:26:43;6.30;99.90
35559;DHT22;21661;50.794;-1.066;2022-11-30T03:29:08;6.30;99.90
35559;DHT22;21661;50.794;-1.066;2022-11-30T03:31:34;6.30;99.90
35559;DHT22;21661;50.794;-1.066;2022-11-30T03:33:59;6.20;99.90
35559;DHT22;21661;50.794;-1.066;2022-11-30T03:36:25;6.20;99.90
35559;DHT22;21661;50.794;-1.066;2022-11-30T03:38:50;6.30;99.90
35559;DHT22;21661;50.794;-1.066;2022-11-30T03:41:16;6.30;99.90
35559;DHT22;21661;50.794;-1.066;2022-11-30T03:43:42;6.30;99.90
35559;DHT22;21661;50.794;-1.066;2022-11-30T03:46:08;6.30;99.90
35559;DHT22;21661;50.794;-1.066;2022-11-30T03:48:34;6.30;99.90
35559;DHT22;21661;50.794;-1.066;2022-11-30T03:51:00;6.30;99.90
35559;DHT22;21661;50.794;-1.066;2022-11-30T03:53:26;6.30;99.90
35559;DHT22;21661;50.794;-1.066;2022-11-30T03:55:56;6.30;99.90
35559;DHT22;21661;50.794;-1.066;2022-11-30T03:58:22;6.30;99.90
35559;DHT22;21661;50.794;-1.066;2022-11-30T04:00:47;6.30;99.90
35559;DHT22;21661;50.794;-1.066;2022-11-30T04:03:13;6.30;99.90
35559;DHT22;21661;50.794;-1.066;2022-11-30T04:05:38;6.40;99.90
35559;DHT22;21661;50.794;-1.066;2022-11-30T04:08:04;6.40;99.90
35559;DHT22;21661;50.794;-1.066;2022-11-30T04:10:29;6.40;99.90
35559;DHT22;21661;50.794;-1.066;2022-11-30T04:12:55;6.40;99.90
35559;DHT22;21661;50.794;-1.066;2022-11-30T04:15:20;6.40;99.90
35559;DHT22;21661;50.794;-1.066;2022-11-30T04:17:46;6.40;99.90
35559;DHT22;21661;50.794;-1.066;2022-11-30T04:20:11;6.40;99.90
35559;DHT22;21661;50.794;-1.066;2022-11-30T04:22:37;6.40;99.90
35559;DHT22;21661;50.794;-1.066;2022-11-30T04:25:02;6.40;99.90
35559;DHT22;21661;50.794;-1.066;2022-11-30T04:27:28;6.50;99.90
35559;DHT22;21661;50.794;-1.066;2022-11-30T04:29:53;6.50;99.90
35559;DHT22;21661;50.794;-1.066;2022-11-30T04:32:19;6.60;99.90
35559;DHT22;21661;50.794;-1.066;2022-11-30T04:34:44;6.60;99.90
35559;DHT22;21661;50.794;-1.066;2022-11-30T04:37:10;6.60;99.90
35559;DHT22;21661;50.794;-1.066;2022-11-30T04:39:35;6.50;99.90
35559;DHT22;21661;50.794;-1.066;2022-11-30T04:42:01;6.50;99.90
35559;DHT22;21661;50.794;-1.066;2022-11-30T04:44:26;6.50;99.90
35559;DHT22;21661;50.794;-1.066;2022-11-30T04:46:52;6.50;99.90
35559;DHT22;21661;50.794;-1.066;2022-11-30T04:49:17;6.50;99.90
35559;DHT22;21661;50.794;-1.066;2022-11-30T04:51:43;6.50;99.90
35559;DHT22;21661;50.794;-1.066;2022-11-30T04:54:08;6.50;99.90
35559;DHT22;21661;50.794;-1.066;2022-11-30T04:56:33;6.50;99.90
35559;DHT22;21661;50.794;-1.066;2022-11-30T04:59:02;6.50;99.90
35559;DHT22;21661;50.794;-1.066;2022-11-30T05:01:27;6.40;99.90
35559;DHT22;21661;50.794;-1.066;2022-11-30T05:03:53;6.50;99.90
35559;DHT22;21661;50.794;-1.066;2022-11-30T05:06:18;6.50;99.90
35559;DHT22;21661;50.794;-1.066;2022-11-30T05:08:44;6.40;99.90
35559;DHT22;21661;50.794;-1.066;2022-11-30T05:11:09;6.50;99.90
35559;DHT22;21661;50.794;-1.066;2022-11-30T05:13:35;6.50;99.90
35559;DHT22;21661;50.794;-1.066;2022-11-30T05:16:00;6.60;99.90
35559;DHT22;21661;50.794;-1.066;2022-11-30T05:18:26;6.60;99.90
35559;DHT22;21661;50.794;-1.066;2022-11-30T05:20:51;6.60;99.90
35559;DHT22;21661;50.794;-1.066;2022-11-30T05:23:17;6.60;99.90
35559;DHT22;21661;50.794;-1.066;2022-11-30T05:25:43;6.60;99.90
35559;DHT22;21661;50.794;-1.066;2022-11-30T05:28:09;6.70;99.90
35559;DHT22;21661;50.794;-1.066;2022-11-30T05:30:35;6.70;99.90
35559;DHT22;21661;50.794;-1.066;2022-11-30T05:33:01;6.70;99.90
35559;DHT22;21661;50.794;-1.066;2022-11-30T05:35:27;6.80;99.90
35559;DHT22;21661;50.794;-1.066;2022-11-30T05:37:52;6.70;99.90
35559;DHT22;21661;50.794;-1.066;2022-11-30T05:40:18;6.80;99.90
35559;DHT22;21661;50.794;-1.066;2022-11-30T05:42:43;6.80;99.90
35559;DHT22;21661;50.794;-1.066;2022-11-30T05:45:09;6.80;99.90
35559;DHT22;21661;50.794;-1.066;2022-11-30T05:47:35;6.80;99.90
35559;DHT22;21661;50.794;-1.066;2022-11-30T05:50:00;6.90;99.90
35559;DHT22;21661;50.794;-1.066;2022-11-30T05:52:25;6.90;99.90
35559;DHT22;21661;50.794;-1.066;2022-11-30T05:54:51;6.90;99.90
35559;DHT22;21661;50.794;-1.066;2022-11-30T05:57:16;6.90;99.90
35559;DHT22;21661;50.794;-1.066;2022-11-30T05:59:42;6.90;99.90
35559;DHT22;21661;50.794;-1.066;2022-11-30T06:02:07;7.00;99.90
35559;DHT22;21661;50.794;-1.066;2022-11-30T06:04:33;7.00;99.90
35559;DHT22;21661;50.794;-1.066;2022-11-30T06:06:59;7.00;99.90
35559;DHT22;21661;50.794;-1.066;2022-11-30T06:09:24;7.10;99.90
35559;DHT22;21661;50.794;-1.066;2022-11-30T06:11:50;7.10;99.90
35559;DHT22;21661;50.794;-1.066;2022-11-30T06:14:15;7.10;99.90
35559;DHT22;21661;50.794;-1.066;2022-11-30T06:16:41;7.10;99.90
35559;DHT22;21661;50.794;-1.066;2022-11-30T06:19:06;7.10;99.90
35559;DHT22;21661;50.794;-1.066;2022-11-30T06:21:32;7.10;99.90
35559;DHT22;21661;50.794;-1.066;2022-11-30T06:23:57;7.10;99.90
35559;DHT22;21661;50.794;-1.066;2022-11-30T06:26:23;7.20;99.90
35559;DHT22;21661;50.794;-1.066;2022-11-30T06:28:48;7.20;99.90
35559;DHT22;21661;50.794;-1.066;2022-11-30T06:31:14;7.20;99.90
35559;DHT22;21661;50.794;-1.066;2022-11-30T06:33:39;7.20;99.90
35559;DHT22;21661;50.794;-1.066;2022-11-30T06:36:05;7.20;99.90
35559;DHT22;21661;50.794;-1.066;2022-11-30T06:38:31;7.20;99.90
35559;DHT22;21661;50.794;-1.066;2022-11-30T06:41:06;7.30;99.90
35559;DHT22;21661;50.794;-1.066;2022-11-30T06:43:33;7.30;99.90
35559;DHT22;21661;50.794;-1.066;2022-11-30T06:45:58;7.40;99.90
35559;DHT22;21661;50.794;-1.066;2022-11-30T06:48:24;7.30;99.90
35559;DHT22;21661;50.794;-1.066;2022-11-30T06:50:49;7.30;99.90
35559;DHT22;21661;50.794;-1.066;2022-11-30T06:53:14;7.30;99.90
35559;DHT22;21661;50.794;-1.066;2022-11-30T06:55:40;7.30;99.90
35559;DHT22;21661;50.794;-1.066;2022-11-30T06:58:07;7.40;99.90
35559;DHT22;21661;50.794;-1.066;2022-11-30T07:00:33;7.30;99.90
35559;DHT22;21661;50.794;-1.066;2022-11-30T07:02:59;7.40;99.90
35559;DHT22;21661;50.794;-1.066;2022-11-30T07:05:24;7.40;99.90
35559;DHT22;21661;50.794;-1.066;2022-11-30T07:07:50;7.40;99.90
35559;DHT22;21661;50.794;-1.066;2022-11-30T07:10:15;7.40;99.90
35559;DHT22;21661;50.794;-1.066;2022-11-30T07:12:41;7.40;99.90
35559;DHT22;21661;50.794;-1.066;2022-11-30T07:15:06;7.40;99.90
35559;DHT22;21661;50.794;-1.066;2022-11-30T07:17:32;7.40;99.90
35559;DHT22;21661;50.794;-1.066;2022-11-30T07:19:59;7.50;99.90
35559;DHT22;21661;50.794;-1.066;2022-11-30T07:22:24;7.50;99.90
35559;DHT22;21661;50.794;-1.066;2022-11-30T07:24:50;7.60;99.90
35559;DHT22;21661;50.794;-1.066;2022-11-30T07:27:34;7.70;99.90
35559;DHT22;21661;50.794;-1.066;2022-11-30T07:29:59;7.60;99.90
35559;DHT22;21661;50.794;-1.066;2022-11-30T07:32:25;7.70;99.90
35559;DHT22;21661;50.794;-1.066;2022-11-30T07:34:50;7.80;99.90
35559;DHT22;21661;50.794;-1.066;2022-11-30T07:37:16;7.80;99.90
35559;DHT22;21661;50.794;-1.066;2022-11-30T07:39:42;7.90;99.90
35559;DHT22;21661;50.794;-1.066;2022-11-30T07:42:07;7.80;99.90
35559;DHT22;21661;50.794;-1.066;2022-11-30T07:44:32;7.90;99.90
35559;DHT22;21661;50.794;-1.066;2022-11-30T07:46:58;7.90;99.90
35559;DHT22;21661;50.794;-1.066;2022-11-30T07:49:25;8.00;99.90
35559;DHT22;21661;50.794;-1.066;2022-11-30T07:51:50;8.00;99.90
35559;DHT22;21661;50.794;-1.066;2022-11-30T07:54:16;8.00;99.90
35559;DHT22;21661;50.794;-1.066;2022-11-30T07:56:41;8.00;99.90
35559;DHT22;21661;50.794;-1.066;2022-11-30T07:59:08;8.00;99.90
35559;DHT22;21661;50.794;-1.066;2022-11-30T08:01:33;8.00;99.90
35559;DHT22;21661;50.794;-1.066;2022-11-30T08:03:59;8.10;99.90
35559;DHT22;21661;50.794;-1.066;2022-11-30T08:06:25;8.10;99.90
35559;DHT22;21661;50.794;-1.066;2022-11-30T08:08:52;8.20;99.90
35559;DHT22;21661;50.794;-1.066;2022-11-30T08:11:18;8.20;99.90
35559;DHT22;21661;50.794;-1.066;2022-11-30T08:13:44;8.20;99.90
35559;DHT22;21661;50.794;-1.066;2022-11-30T08:16:11;8.20;99.90
35559;DHT22;21661;50.794;-1.066;2022-11-30T08:18:38;8.20;99.90
35559;DHT22;21661;50.794;-1.066;2022-11-30T08:21:04;8.10;99.90
35559;DHT22;21661;50.794;-1.066;2022-11-30T08:23:31;8.20;99.90
35559;DHT22;21661;50.794;-1.066;2022-11-30T08:26:10;8.20;99.90
35559;DHT22;21661;50.794;-1.066;2022-11-30T08:28:36;8.20;99.90
35559;DHT22;21661;50.794;-1.066;2022-11-30T08:31:02;8.30;99.90
35559;DHT22;21661;50.794;-1.066;2022-11-30T08:33:29;8.30;99.90
35559;DHT22;21661;50.794;-1.066;2022-11-30T08:36:03;8.30;99.90
35559;DHT22;21661;50.794;-1.066;2022-11-30T08:38:29;8.30;99.90
35559;DHT22;21661;50.794;-1.066;2022-11-30T08:40:55;8.30;99.90
35559;DHT22;21661;50.794;-1.066;2022-11-30T08:43:21;8.30;99.90
35559;DHT22;21661;50.794;-1.066;2022-11-30T08:45:46;8.30;99.90
35559;DHT22;21661;50.794;-1.066;2022-11-30T08:48:12;8.40;99.90
35559;DHT22;21661;50.794;-1.066;2022-11-30T08:50:37;8.40;99.90
35559;DHT22;21661;50.794;-1.066;2022-11-30T08:53:03;8.40;99.90
35559;DHT22;21661;50.794;-1.066;2022-11-30T08:55:28;8.40;99.90
35559;DHT22;21661;50.794;-1.066;2022-11-30T08:57:54;8.40;99.90
35559;DHT22;21661;50.794;-1.066;2022-11-30T09:00:19;8.50;99.90
35559;DHT22;21661;50.794;-1.066;2022-11-30T09:02:45;8.50;99.90
35559;DHT22;21661;50.794;-1.066;2022-11-30T09:05:11;8.50;99.90
35559;DHT22;21661;50.794;-1.066;2022-11-30T09:07:37;8.50;99.90
35559;DHT22;21661;50.794;-1.066;2022-11-30T09:10:02;8.50;99.90
35559;DHT22;21661;50.794;-1.066;2022-11-30T09:12:28;8.50;99.90
35559;DHT22;21661;50.794;-1.066;2022-11-30T09:14:53;8.60;99.90
35559;DHT22;21661;50.794;-1.066;2022-11-30T09:17:19;8.60;99.90
35559;DHT22;21661;50.794;-1.066;2022-11-30T09:19:44;8.50;99.90
35559;DHT22;21661;50.794;-1.066;2022-11-30T09:22:10;8.60;99.90
35559;DHT22;21661;50.794;-1.066;2022-11-30T09:24:36;8.60;99.90
35559;DHT22;21661;50.794;-1.066;2022-11-30T09:27:02;8.60;99.90
35559;DHT22;21661;50.794;-1.066;2022-11-30T09:29:28;8.60;99.90
35559;DHT22;21661;50.794;-1.066;2022-11-30T09:31:53;8.70;99.90
35559;DHT22;21661;50.794;-1.066;2022-11-30T09:34:18;8.70;99.90
35559;DHT22;21661;50.794;-1.066;2022-11-30T09:36:44;8.70;99.90
35559;DHT22;21661;50.794;-1.066;2022-11-30T09:39:10;8.70;99.90
35559;DHT22;21661;50.794;-1.066;2022-11-30T09:44:25;8.80;99.90
35559;DHT22;21661;50.794;-1.066;2022-11-30T09:47:01;8.90;99.90
35559;DHT22;21661;50.794;-1.066;2022-11-30T09:49:44;8.90;99.90
35559;DHT22;21661;50.794;-1.066;2022-11-30T09:52:15;8.90;99.90
35559;DHT22;21661;50.794;-1.066;2022-11-30T09:54:42;9.00;99.90
35559;DHT22;21661;50.794;-1.066;2022-11-30T09:59:34;9.10;99.90
35559;DHT22;21661;50.794;-1.066;2022-11-30T10:02:08;9.10;99.90
35559;DHT22;21661;50.794;-1.066;2022-11-30T10:04:36;9.10;99.90
35559;DHT22;21661;50.794;-1.066;2022-11-30T10:09:37;9.20;99.90
35559;DHT22;21661;50.794;-1.066;2022-11-30T10:22:47;9.30;99.90
35559;DHT22;21661;50.794;-1.066;2022-11-30T10:25:23;9.30;99.90
35559;DHT22;21661;50.794;-1.066;2022-11-30T10:30:22;9.40;99.90
35559;DHT22;21661;50.794;-1.066;2022-11-30T10:32:50;9.40;99.90
35559;DHT22;21661;50.794;-1.066;2022-11-30T10:35:33;9.50;99.90
35559;DHT22;21661;50.794;-1.066;2022-11-30T10:38:02;9.50;99.90
35559;DHT22;21661;50.794;-1.066;2022-11-30T10:40:48;9.50;99.90
35559;DHT22;21661;50.794;-1.066;2022-11-30T10:45:43;9.60;99.90
35559;DHT22;21661;50.794;-1.066;2022-11-30T10:48:15;9.60;99.90
35559;DHT22;21661;50.794;-1.066;2022-11-30T10:50:42;9.50;99.90
35559;DHT22;21661;50.794;-1.066;2022-11-30T10:53:08;9.60;99.90
35559;DHT22;21661;50.794;-1.066;2022-11-30T11:01:05;9.60;99.90
35559;DHT22;21661;50.794;-1.066;2022-11-30T11:03:31;9.60;99.90
35559;DHT22;21661;50.794;-1.066;2022-11-30T11:08:32;9.60;99.90
35559;DHT22;21661;50.794;-1.066;2022-11-30T11:10:57;9.60;99.90
35559;DHT22;21661;50.794;-1.066;2022-11-30T11:13:39;9.70;99.90
35559;DHT22;21661;50.794;-1.066;2022-11-30T11:16:06;9.70;99.90
35559;DHT22;21661;50.794;-1.066;2022-11-30T11:18:33;9.80;99.90
35559;DHT22;21661;50.794;-1.066;2022-11-30T11:20:59;9.70;99.90
35559;DHT22;21661;50.794;-1.066;2022-11-30T11:23:28;9.80;99.90
35559;DHT22;21661;50.794;-1.066;2022-11-30T11:25:54;9.80;99.90
35559;DHT22;21661;50.794;-1.066;2022-11-30T11:28:21;9.80;99.90
35559;DHT22;21661;50.794;-1.066;2022-11-30T11:30:50;9.80;99.90
35559;DHT22;21661;50.794;-1.066;2022-11-30T11:33:26;9.80;99.90
35559;DHT22;21661;50.794;-1.066;2022-11-30T11:38:18;9.80;99.90
35559;DHT22;21661;50.794;-1.066;2022-11-30T11:40:49;9.90;99.90
35559;DHT22;21661;50.794;-1.066;2022-11-30T11:43:15;9.80;99.90
35559;DHT22;21661;50.794;-1.066;2022-11-30T11:45:41;9.80;99.90
35559;DHT22;21661;50.794;-1.066;2022-11-30T11:48:25;9.70;99.90
35559;DHT22;21661;50.794;-1.066;2022-11-30T11:50:58;9.80;99.90
35559;DHT22;21661;50.794;-1.066;2022-11-30T11:53:38;9.80;99.90
35559;DHT22;21661;50.794;-1.066;2022-11-30T11:59:04;9.80;99.90
35559;DHT22;21661;50.794;-1.066;2022-11-30T12:06:31;9.90;99.90
35559;DHT22;21661;50.794;-1.066;2022-11-30T12:09:32;9.90;99.90
35559;DHT22;21661;50.794;-1.066;2022-11-30T12:11:50;9.90;99.90
35559;DHT22;21661;50.794;-1.066;2022-11-30T12:14:16;9.80;99.90
35559;DHT22;21661;50.794;-1.066;2022-11-30T12:19:31;9.90;99.90
35559;DHT22;21661;50.794;-1.066;2022-11-30T12:24:51;10.00;99.90
35559;DHT22;21661;50.794;-1.066;2022-11-30T12:34:47;10.20;99.90
35559;DHT22;21661;50.794;-1.066;2022-11-30T12:47:38;10.40;99.90
35559;DHT22;21661;50.794;-1.066;2022-11-30T13:00:44;10.30;99.90
35559;DHT22;21661;50.794;-1.066;2022-11-30T13:05:58;10.30;99.90
35559;DHT22;21661;50.794;-1.066;2022-11-30T13:10:54;10.40;99.90
35559;DHT22;21661;50.794;-1.066;2022-11-30T13:13:22;10.40;99.90
35559;DHT22;21661;50.794;-1.066;2022-11-30T13:15:49;10.40;99.90
35559;DHT22;21661;50.794;-1.066;2022-11-30T13:18:19;10.40;99.90
35559;DHT22;21661;50.794;-1.066;2022-11-30T13:23:36;10.40;99.90
35559;DHT22;21661;50.794;-1.066;2022-11-30T13:26:10;10.40;99.90
35559;DHT22;21661;50.794;-1.066;2022-11-30T13:31:14;10.30;99.90
35559;DHT22;21661;50.794;-1.066;2022-11-30T13:33:45;10.30;99.90
35559;DHT22;21661;50.794;-1.066;2022-11-30T13:36:23;10.20;99.90
35559;DHT22;21661;50.794;-1.066;2022-11-30T13:41:35;10.20;99.90
35559;DHT22;21661;50.794;-1.066;2022-11-30T13:44:01;10.20;99.90
35559;DHT22;21661;50.794;-1.066;2022-11-30T13:46:27;10.30;99.90
35559;DHT22;21661;50.794;-1.066;2022-11-30T13:49:09;10.30;99.90
35559;DHT22;21661;50.794;-1.066;2022-11-30T13:51:36;10.40;99.90
35559;DHT22;21661;50.794;-1.066;2022-11-30T13:56:46;10.40;99.90
35559;DHT22;21661;50.794;-1.066;2022-11-30T14:01:43;10.40;99.90
35559;DHT22;21661;50.794;-1.066;2022-11-30T14:07:31;10.30;99.90
35559;DHT22;21661;50.794;-1.066;2022-11-30T14:14:56;10.20;99.90
35559;DHT22;21661;50.794;-1.066;2022-11-30T14:17:22;10.20;99.90
35559;DHT22;21661;50.794;-1.066;2022-11-30T14:19:49;10.20;99.90
35559;DHT22;21661;50.794;-1.066;2022-11-30T14:22:16;10.20;99.90
35559;DHT22;21661;50.794;-1.066;2022-11-30T14:24:43;10.30;99.90
35559;DHT22;21661;50.794;-1.066;2022-11-30T14:27:22;10.30;99.90
35559;DHT22;21661;50.794;-1.066;2022-11-30T14:29:49;10.30;99.90
35559;DHT22;21661;50.794;-1.066;2022-11-30T14:32:36;10.30;99.90
35559;DHT22;21661;50.794;-1.066;2022-11-30T14:35:11;10.30;99.90
35559;DHT22;21661;50.794;-1.066;2022-11-30T14:37:54;10.20;99.90
35559;DHT22;21661;50.794;-1.066;2022-11-30T14:40:21;10.20;99.90
35559;DHT22;21661;50.794;-1.066;2022-11-30T14:42:49;10.10;99.90
35559;DHT22;21661;50.794;-1.066;2022-11-30T14:45:18;10.10;99.90
35559;DHT22;21661;50.794;-1.066;2022-11-30T14:47:44;10.00;99.90
35559;DHT22;21661;50.794;-1.066;2022-11-30T14:50:12;9.90;99.90
35559;DHT22;21661;50.794;-1.066;2022-11-30T14:57:49;9.70;99.90
35559;DHT22;21661;50.794;-1.066;2022-11-30T15:00:17;9.70;99.90
35559;DHT22;21661;50.794;-1.066;2022-11-30T15:02:44;9.60;99.90
35559;DHT22;21661;50.794;-1.066;2022-11-30T15:05:22;9.60;99.90
35559;DHT22;21661;50.794;-1.066;2022-11-30T15:07:48;9.50;99.90
35559;DHT22;21661;50.794;-1.066;2022-11-30T15:10:15;9.50;99.90
35559;DHT22;21661;50.794;-1.066;2022-11-30T15:12:43;9.30;99.90
35559;DHT22;21661;50.794;-1.066;2022-11-30T15:17:57;9.30;99.90
35559;DHT22;21661;50.794;-1.066;2022-11-30T15:22:50;9.20;99.90
35559;DHT22;21661;50.794;-1.066;2022-11-30T15:25:16;9.20;99.90
35559;DHT22;21661;50.794;-1.066;2022-11-30T15:27:42;9.20;99.90
35559;DHT22;21661;50.794;-1.066;2022-11-30T15:30:14;9.10;99.90
35559;DHT22;21661;50.794;-1.066;2022-11-30T15:32:42;9.10;99.90
35559;DHT22;21661;50.794;-1.066;2022-11-30T15:35:15;9.10;99.90
35559;DHT22;21661;50.794;-1.066;2022-11-30T15:37:41;9.20;99.90
35559;DHT22;21661;50.794;-1.066;2022-11-30T15:40:07;9.20;99.90
35559;DHT22;21661;50.794;-1.066;2022-11-30T15:42:35;9.30;99.90
35559;DHT22;21661;50.794;-1.066;2022-11-30T15:45:16;9.30;99.90
35559;DHT22;21661;50.794;-1.066;2022-11-30T15:47:43;9.30;99.90
35559;DHT22;21661;50.794;-1.066;2022-11-30T15:52:53;9.40;99.90
35559;DHT22;21661;50.794;-1.066;2022-11-30T15:58:03;9.40;99.90
35559;DHT22;21661;50.794;-1.066;2022-11-30T16:00:29;9.50;99.90
35559;DHT22;21661;50.794;-1.066;2022-11-30T16:03:10;9.40;99.90
35559;DHT22;21661;50.794;-1.066;2022-11-30T16:05:37;9.40;99.90
35559;DHT22;21661;50.794;-1.066;2022-11-30T16:08:03;9.40;99.90
35559;DHT22;21661;50.794;-1.066;2022-11-30T16:10:33;9.40;99.90
35559;DHT22;21661;50.794;-1.066;2022-11-30T16:12:59;9.40;99.90
35559;DHT22;21661;50.794;-1.066;2022-11-30T16:15:32;9.30;99.90
35559;DHT22;21661;50.794;-1.066;2022-11-30T16:18:01;9.30;99.90
35559;DHT22;21661;50.794;-1.066;2022-11-30T16:20:33;9.30;99.90
35559;DHT22;21661;50.794;-1.066;2022-11-30T16:22:59;9.30;99.90
35559;DHT22;21661;50.794;-1.066;2022-11-30T16:25:24;9.30;99.90
35559;DHT22;21661;50.794;-1.066;2022-11-30T16:27:50;9.20;99.90
35559;DHT22;21661;50.794;-1.066;2022-11-30T16:30:17;9.20;99.90
35559;DHT22;21661;50.794;-1.066;2022-11-30T16:32:44;9.10;99.90
35559;DHT22;21661;50.794;-1.066;2022-11-30T16:35:17;9.10;99.90
35559;DHT22;21661;50.794;-1.066;2022-11-30T16:37:44;9.10;99.90
35559;DHT22;21661;50.794;-1.066;2022-11-30T16:40:10;9.00;99.90
35559;DHT22;21661;50.794;-1.066;2022-11-30T16:42:35;8.90;99.90
35559;DHT22;21661;50.794;-1.066;2022-11-30T16:45:01;8.90;99.90
35559;DHT22;21661;50.794;-1.066;2022-11-30T16:47:26;8.90;99.90
35559;DHT22;21661;50.794;-1.066;2022-11-30T16:49:52;8.90;99.90
35559;DHT22;21661;50.794;-1.066;2022-11-30T16:52:17;8.80;99.90
35559;DHT22;21661;50.794;-1.066;2022-11-30T16:54:43;8.80;99.90
35559;DHT22;21661;50.794;-1.066;2022-11-30T16:57:08;8.80;99.90
35559;DHT22;21661;50.794;-1.066;2022-11-30T16:59:34;8.80;99.90
35559;DHT22;21661;50.794;-1.066;2022-11-30T17:01:59;8.80;99.90
35559;DHT22;21661;50.794;-1.066;2022-11-30T17:04:25;8.70;99.90
35559;DHT22;21661;50.794;-1.066;2022-11-30T17:06:51;8.70;99.90
35559;DHT22;21661;50.794;-1.066;2022-11-30T17:09:17;8.70;99.90
35559;DHT22;21661;50.794;-1.066;2022-11-30T17:11:43;8.70;99.90
35559;DHT22;21661;50.794;-1.066;2022-11-30T17:14:11;8.60;99.90
35559;DHT22;21661;50.794;-1.066;2022-11-30T17:16:36;8.60;99.90
35559;DHT22;21661;50.794;-1.066;2022-11-30T17:19:02;8.60;99.90
35559;DHT22;21661;50.794;-1.066;2022-11-30T17:21:31;8.60;99.90
35559;DHT22;21661;50.794;-1.066;2022-11-30T17:23:57;8.60;99.90
35559;DHT22;21661;50.794;-1.066;2022-11-30T17:26:22;8.50;99.90
35559;DHT22;21661;50.794;-1.066;2022-11-30T17:28:48;8.50;99.90
35559;DHT22;21661;50.794;-1.066;2022-11-30T17:31:13;8.50;99.90
35559;DHT22;21661;50.794;-1.066;2022-11-30T17:33:39;8.50;99.90
35559;DHT22;21661;50.794;-1.066;2022-11-30T17:36:05;8.50;99.90
35559;DHT22;21661;50.794;-1.066;2022-11-30T17:38:32;8.50;99.90